Nazareth, Pennsylvania
Current Conditions -  °F | °C
As of 12:51 AM on Wednesday 22 Oct 2014 (Local Time) from KABE Reporting Station
Clear Clear  
Wind Chill: 47°   Ceiling: Unl
Heat Index: 49°   Visibility: 10mi
Dew Point: 46°   Wind: 5mph
Humidity: 90%   Direction: 70°ENE
Pressure: 29.9"   Gusts: NA
Location:  40.74°N, 75.31°W
Report Text: KABE 220451Z 07004KT 10SM CLR 09/08 A2990 RMK AO2 SLP127 T00940078 401940089
Loading
Personal Weather Stations






























Interactive Weather Map
Tropical Storm Tracking
New forecast layout! Learn more

10-Day Weather Forecast

Advertisements
Track Severe Weather on mobile